sensor_id;sensor_type;location;lat;lon;timestamp;pressure;altitude;pressure_sealevel;temperature;humidity
69058;BME280;56128;37.534;-122.308;2024-03-07T00:02:21;100993.28;;;14.13;100.00
69058;BME280;56128;37.534;-122.308;2024-03-07T00:04:49;100992.06;;;13.96;100.00
69058;BME280;56128;37.534;-122.308;2024-03-07T00:07:15;100987.34;;;13.89;100.00
69058;BME280;56128;37.534;-122.308;2024-03-07T00:09:41;100992.47;;;13.92;100.00
69058;BME280;56128;37.534;-122.308;2024-03-07T00:12:08;100994.28;;;13.82;100.00
69058;BME280;56128;37.534;-122.308;2024-03-07T00:14:34;100994.28;;;13.82;100.00
69058;BME280;56128;37.534;-122.308;2024-03-07T00:17:01;100995.78;;;13.74;100.00
69058;BME280;56128;37.534;-122.308;2024-03-07T00:19:28;100997.59;;;13.74;100.00
69058;BME280;56128;37.534;-122.308;2024-03-07T00:21:59;100998.72;;;13.71;100.00
69058;BME280;56128;37.534;-122.308;2024-03-07T00:24:25;101000.44;;;13.72;100.00
69058;BME280;56128;37.534;-122.308;2024-03-07T00:26:53;100997.28;;;13.67;100.00
69058;BME280;56128;37.534;-122.308;2024-03-07T00:29:19;100990.00;;;13.58;100.00
69058;BME280;56128;37.534;-122.308;2024-03-07T00:31:46;100988.91;;;13.60;100.00
69058;BME280;56128;37.534;-122.308;2024-03-07T00:34:14;101002.94;;;13.64;100.00
69058;BME280;56128;37.534;-122.308;2024-03-07T00:36:45;101002.00;;;13.54;100.00
69058;BME280;56128;37.534;-122.308;2024-03-07T00:39:12;100998.31;;;13.55;100.00
69058;BME280;56128;37.534;-122.308;2024-03-07T00:41:39;100989.28;;;13.56;100.00
69058;BME280;56128;37.534;-122.308;2024-03-07T00:44:10;100993.09;;;13.53;100.00
69058;BME280;56128;37.534;-122.308;2024-03-07T00:46:37;100986.59;;;13.56;100.00
69058;BME280;56128;37.534;-122.308;2024-03-07T00:49:05;100993.53;;;13.58;100.00
69058;BME280;56128;37.534;-122.308;2024-03-07T00:51:31;101002.78;;;13.44;100.00
69058;BME280;56128;37.534;-122.308;2024-03-07T00:53:58;100993.00;;;13.43;100.00
69058;BME280;56128;37.534;-122.308;2024-03-07T00:56:27;100991.31;;;13.42;100.00
69058;BME280;56128;37.534;-122.308;2024-03-07T00:58:55;100990.88;;;13.26;100.00
69058;BME280;56128;37.534;-122.308;2024-03-07T01:01:24;100984.28;;;13.19;100.00
69058;BME280;56128;37.534;-122.308;2024-03-07T01:03:51;100991.19;;;13.11;100.00
69058;BME280;56128;37.534;-122.308;2024-03-07T01:06:18;100981.78;;;13.06;100.00
69058;BME280;56128;37.534;-122.308;2024-03-07T01:08:46;100982.56;;;12.96;100.00
69058;BME280;56128;37.534;-122.308;2024-03-07T01:11:15;100987.19;;;12.94;100.00
69058;BME280;56128;37.534;-122.308;2024-03-07T01:13:45;100980.53;;;12.89;100.00
69058;BME280;56128;37.534;-122.308;2024-03-07T01:16:16;100988.59;;;12.77;100.00
69058;BME280;56128;37.534;-122.308;2024-03-07T01:18:43;100992.50;;;12.73;100.00
69058;BME280;56128;37.534;-122.308;2024-03-07T01:21:15;100994.09;;;12.64;100.00
69058;BME280;56128;37.534;-122.308;2024-03-07T01:23:43;100993.97;;;12.66;100.00
69058;BME280;56128;37.534;-122.308;2024-03-07T01:26:12;100996.31;;;12.59;100.00
69058;BME280;56128;37.534;-122.308;2024-03-07T01:28:42;100989.13;;;12.48;100.00
69058;BME280;56128;37.534;-122.308;2024-03-07T01:31:12;100987.94;;;12.41;100.00
69058;BME280;56128;37.534;-122.308;2024-03-07T01:33:44;100992.09;;;12.34;100.00
69058;BME280;56128;37.534;-122.308;2024-03-07T01:36:11;100988.03;;;12.28;100.00
69058;BME280;56128;37.534;-122.308;2024-03-07T01:38:41;100989.06;;;12.16;100.00
69058;BME280;56128;37.534;-122.308;2024-03-07T01:41:08;100988.78;;;12.08;100.00
69058;BME280;56128;37.534;-122.308;2024-03-07T01:43:38;100993.06;;;11.99;100.00
69058;BME280;56128;37.534;-122.308;2024-03-07T01:46:07;100994.16;;;11.96;100.00
69058;BME280;56128;37.534;-122.308;2024-03-07T01:48:39;100998.38;;;11.88;100.00
69058;BME280;56128;37.534;-122.308;2024-03-07T01:51:07;101007.16;;;11.78;100.00
69058;BME280;56128;37.534;-122.308;2024-03-07T01:53:39;101006.13;;;11.68;100.00
69058;BME280;56128;37.534;-122.308;2024-03-07T01:56:09;101003.81;;;11.63;100.00
69058;BME280;56128;37.534;-122.308;2024-03-07T01:58:47;101006.06;;;11.45;100.00
69058;BME280;56128;37.534;-122.308;2024-03-07T02:01:16;101011.88;;;11.39;100.00
69058;BME280;56128;37.534;-122.308;2024-03-07T02:03:52;101015.16;;;11.31;100.00
69058;BME280;56128;37.534;-122.308;2024-03-07T02:06:20;101008.34;;;11.27;100.00
69058;BME280;56128;37.534;-122.308;2024-03-07T02:08:48;101015.94;;;11.20;100.00
69058;BME280;56128;37.534;-122.308;2024-03-07T02:11:15;101010.34;;;11.12;100.00
69058;BME280;56128;37.534;-122.308;2024-03-07T02:13:54;101007.81;;;10.98;100.00
69058;BME280;56128;37.534;-122.308;2024-03-07T02:16:21;101004.88;;;10.90;100.00
69058;BME280;56128;37.534;-122.308;2024-03-07T02:18:52;101008.63;;;10.87;100.00
69058;BME280;56128;37.534;-122.308;2024-03-07T02:21:26;101012.72;;;10.80;100.00
69058;BME280;56128;37.534;-122.308;2024-03-07T02:23:54;101024.94;;;10.71;100.00
69058;BME280;56128;37.534;-122.308;2024-03-07T02:26:21;101016.59;;;10.63;100.00
69058;BME280;56128;37.534;-122.308;2024-03-07T02:28:51;101025.94;;;10.57;100.00
69058;BME280;56128;37.534;-122.308;2024-03-07T02:31:18;101027.22;;;10.51;100.00
69058;BME280;56128;37.534;-122.308;2024-03-07T02:33:54;101033.66;;;10.49;100.00
69058;BME280;56128;37.534;-122.308;2024-03-07T02:36:21;101042.88;;;10.45;100.00
69058;BME280;56128;37.534;-122.308;2024-03-07T02:38:56;101037.13;;;10.38;100.00
69058;BME280;56128;37.534;-122.308;2024-03-07T02:41:26;101043.00;;;10.30;100.00
69058;BME280;56128;37.534;-122.308;2024-03-07T02:43:55;101045.03;;;10.27;100.00
69058;BME280;56128;37.534;-122.308;2024-03-07T02:46:23;101044.50;;;10.21;100.00
69058;BME280;56128;37.534;-122.308;2024-03-07T02:48:59;101042.31;;;10.14;100.00
69058;BME280;56128;37.534;-122.308;2024-03-07T02:51:27;101040.09;;;10.07;100.00
69058;BME280;56128;37.534;-122.308;2024-03-07T02:53:55;101050.69;;;10.09;100.00
69058;BME280;56128;37.534;-122.308;2024-03-07T02:56:32;101045.78;;;10.03;100.00
69058;BME280;56128;37.534;-122.308;2024-03-07T02:59:00;101055.81;;;9.99;100.00
69058;BME280;56128;37.534;-122.308;2024-03-07T03:01:29;101055.28;;;9.94;100.00
69058;BME280;56128;37.534;-122.308;2024-03-07T03:03:56;101063.84;;;9.86;100.00
69058;BME280;56128;37.534;-122.308;2024-03-07T03:06:25;101060.41;;;9.84;100.00
69058;BME280;56128;37.534;-122.308;2024-03-07T03:08:55;101064.44;;;9.77;100.00
69058;BME280;56128;37.534;-122.308;2024-03-07T03:11:21;101063.91;;;9.72;100.00
69058;BME280;56128;37.534;-122.308;2024-03-07T03:13:48;101068.06;;;9.63;100.00
69058;BME280;56128;37.534;-122.308;2024-03-07T03:16:15;101070.84;;;9.62;100.00
69058;BME280;56128;37.534;-122.308;2024-03-07T03:18:42;101067.41;;;9.59;100.00
69058;BME280;56128;37.534;-122.308;2024-03-07T03:21:09;101068.69;;;9.54;100.00
69058;BME280;56128;37.534;-122.308;2024-03-07T03:23:36;101072.44;;;9.51;100.00
69058;BME280;56128;37.534;-122.308;2024-03-07T03:26:03;101077.00;;;9.49;100.00
69058;BME280;56128;37.534;-122.308;2024-03-07T03:28:30;101073.78;;;9.44;100.00
69058;BME280;56128;37.534;-122.308;2024-03-07T03:30:59;101072.19;;;9.41;100.00
69058;BME280;56128;37.534;-122.308;2024-03-07T03:33:26;101075.50;;;9.45;100.00
69058;BME280;56128;37.534;-122.308;2024-03-07T03:35:53;101072.06;;;9.43;100.00
69058;BME280;56128;37.534;-122.308;2024-03-07T03:38:21;101079.13;;;9.44;100.00
69058;BME280;56128;37.534;-122.308;2024-03-07T03:40:48;101073.91;;;9.42;100.00
69058;BME280;56128;37.534;-122.308;2024-03-07T03:43:19;101079.25;;;9.42;100.00
69058;BME280;56128;37.534;-122.308;2024-03-07T03:45:45;101076.63;;;9.41;100.00
69058;BME280;56128;37.534;-122.308;2024-03-07T03:48:17;101083.81;;;9.40;100.00
69058;BME280;56128;37.534;-122.308;2024-03-07T03:50:47;101079.53;;;9.38;100.00
69058;BME280;56128;37.534;-122.308;2024-03-07T03:53:14;101084.22;;;9.34;100.00
69058;BME280;56128;37.534;-122.308;2024-03-07T03:55:41;101075.44;;;9.32;100.00
69058;BME280;56128;37.534;-122.308;2024-03-07T03:58:08;101076.72;;;9.26;100.00
69058;BME280;56128;37.534;-122.308;2024-03-07T04:00:35;101068.88;;;9.23;100.00
69058;BME280;56128;37.534;-122.308;2024-03-07T04:03:02;101063.22;;;9.15;100.00
69058;BME280;56128;37.534;-122.308;2024-03-07T04:05:29;101067.69;;;9.15;100.00
69058;BME280;56128;37.534;-122.308;2024-03-07T04:07:56;101074.28;;;9.09;100.00
69058;BME280;56128;37.534;-122.308;2024-03-07T04:10:26;101076.31;;;9.05;100.00
69058;BME280;56128;37.534;-122.308;2024-03-07T04:12:53;101076.19;;;9.07;100.00
69058;BME280;56128;37.534;-122.308;2024-03-07T04:15:20;101088.03;;;9.03;100.00
69058;BME280;56128;37.534;-122.308;2024-03-07T04:17:48;101078.53;;;8.99;100.00
69058;BME280;56128;37.534;-122.308;2024-03-07T04:20:14;101085.75;;;8.97;100.00
69058;BME280;56128;37.534;-122.308;2024-03-07T04:22:43;101087.66;;;8.94;100.00
69058;BME280;56128;37.534;-122.308;2024-03-07T04:25:09;101084.53;;;8.88;100.00
69058;BME280;56128;37.534;-122.308;2024-03-07T04:27:36;101088.38;;;8.84;100.00
69058;BME280;56128;37.534;-122.308;2024-03-07T04:30:07;101097.50;;;8.80;100.00
69058;BME280;56128;37.534;-122.308;2024-03-07T04:32:36;101084.25;;;8.78;100.00
69058;BME280;56128;37.534;-122.308;2024-03-07T04:35:04;101088.84;;;8.76;100.00
69058;BME280;56128;37.534;-122.308;2024-03-07T04:37:34;101092.59;;;8.73;100.00
69058;BME280;56128;37.534;-122.308;2024-03-07T04:40:07;101094.38;;;8.73;100.00
69058;BME280;56128;37.534;-122.308;2024-03-07T04:42:47;101099.72;;;8.73;100.00
69058;BME280;56128;37.534;-122.308;2024-03-07T04:45:17;101091.81;;;8.71;100.00
69058;BME280;56128;37.534;-122.308;2024-03-07T04:47:45;101103.16;;;8.75;100.00
69058;BME280;56128;37.534;-122.308;2024-03-07T04:50:12;101103.31;;;8.72;100.00
69058;BME280;56128;37.534;-122.308;2024-03-07T04:52:40;101111.53;;;8.69;100.00
69058;BME280;56128;37.534;-122.308;2024-03-07T04:55:07;101107.34;;;8.65;100.00
69058;BME280;56128;37.534;-122.308;2024-03-07T04:57:37;101109.81;;;8.68;100.00
69058;BME280;56128;37.534;-122.308;2024-03-07T05:00:09;101116.09;;;8.67;100.00
69058;BME280;56128;37.534;-122.308;2024-03-07T05:02:47;101118.66;;;8.68;100.00
69058;BME280;56128;37.534;-122.308;2024-03-07T05:05:13;101117.06;;;8.66;100.00
69058;BME280;56128;37.534;-122.308;2024-03-07T05:07:39;101126.78;;;8.67;100.00
69058;BME280;56128;37.534;-122.308;2024-03-07T05:10:07;101132.97;;;8.67;100.00
69058;BME280;56128;37.534;-122.308;2024-03-07T05:12:33;101138.13;;;8.70;100.00
69058;BME280;56128;37.534;-122.308;2024-03-07T05:15:00;101134.50;;;8.71;100.00
69058;BME280;56128;37.534;-122.308;2024-03-07T05:17:26;101135.44;;;8.70;100.00
69058;BME280;56128;37.534;-122.308;2024-03-07T05:19:54;101140.09;;;8.67;100.00
69058;BME280;56128;37.534;-122.308;2024-03-07T05:22:20;101132.22;;;8.65;100.00
69058;BME280;56128;37.534;-122.308;2024-03-07T05:24:51;101131.66;;;8.60;100.00
69058;BME280;56128;37.534;-122.308;2024-03-07T05:27:17;101136.31;;;8.56;100.00
69058;BME280;56128;37.534;-122.308;2024-03-07T05:29:44;101133.91;;;8.52;100.00
69058;BME280;56128;37.534;-122.308;2024-03-07T05:32:23;101137.03;;;8.44;100.00
69058;BME280;56128;37.534;-122.308;2024-03-07T05:34:50;101133.78;;;8.39;100.00
69058;BME280;56128;37.534;-122.308;2024-03-07T05:37:16;101138.66;;;8.32;100.00
69058;BME280;56128;37.534;-122.308;2024-03-07T05:39:42;101140.63;;;8.28;100.00
69058;BME280;56128;37.534;-122.308;2024-03-07T05:42:08;101135.56;;;8.24;100.00
69058;BME280;56128;37.534;-122.308;2024-03-07T05:44:42;101144.88;;;8.17;100.00
69058;BME280;56128;37.534;-122.308;2024-03-07T05:47:09;101142.50;;;8.12;100.00
69058;BME280;56128;37.534;-122.308;2024-03-07T05:49:36;101144.50;;;8.08;100.00
69058;BME280;56128;37.534;-122.308;2024-03-07T05:52:05;101140.22;;;8.06;100.00
69058;BME280;56128;37.534;-122.308;2024-03-07T05:54:32;101138.66;;;8.02;100.00
69058;BME280;56128;37.534;-122.308;2024-03-07T05:56:58;101143.81;;;8.05;100.00
69058;BME280;56128;37.534;-122.308;2024-03-07T05:59:25;101143.72;;;8.06;100.00
69058;BME280;56128;37.534;-122.308;2024-03-07T06:01:54;101149.31;;;8.02;100.00
69058;BME280;56128;37.534;-122.308;2024-03-07T06:04:21;101153.13;;;7.97;100.00
69058;BME280;56128;37.534;-122.308;2024-03-07T06:06:47;101156.94;;;7.93;100.00
69058;BME280;56128;37.534;-122.308;2024-03-07T06:09:15;101151.97;;;7.87;100.00
69058;BME280;56128;37.534;-122.308;2024-03-07T06:11:47;101160.13;;;7.84;100.00
69058;BME280;56128;37.534;-122.308;2024-03-07T06:14:14;101163.91;;;7.80;100.00
69058;BME280;56128;37.534;-122.308;2024-03-07T06:16:40;101166.78;;;7.77;100.00
69058;BME280;56128;37.534;-122.308;2024-03-07T06:19:08;101164.94;;;7.77;100.00
69058;BME280;56128;37.534;-122.308;2024-03-07T06:21:37;101164.38;;;7.72;100.00
69058;BME280;56128;37.534;-122.308;2024-03-07T06:24:05;101167.28;;;7.68;100.00
69058;BME280;56128;37.534;-122.308;2024-03-07T06:26:36;101173.66;;;7.65;100.00
69058;BME280;56128;37.534;-122.308;2024-03-07T06:29:03;101176.59;;;7.60;100.00
69058;BME280;56128;37.534;-122.308;2024-03-07T06:31:33;101182.09;;;7.57;100.00
69058;BME280;56128;37.534;-122.308;2024-03-07T06:34:00;101176.16;;;7.52;100.00
69058;BME280;56128;37.534;-122.308;2024-03-07T06:36:26;101180.72;;;7.50;100.00
69058;BME280;56128;37.534;-122.308;2024-03-07T06:38:53;101188.63;;;7.52;100.00
69058;BME280;56128;37.534;-122.308;2024-03-07T06:41:40;101194.97;;;7.49;100.00
69058;BME280;56128;37.534;-122.308;2024-03-07T06:44:06;101198.66;;;7.46;100.00
69058;BME280;56128;37.534;-122.308;2024-03-07T06:46:35;101195.34;;;7.43;100.00
69058;BME280;56128;37.534;-122.308;2024-03-07T06:49:01;101193.75;;;7.39;100.00
69058;BME280;56128;37.534;-122.308;2024-03-07T06:51:27;101193.16;;;7.34;100.00
69058;BME280;56128;37.534;-122.308;2024-03-07T06:53:54;101188.03;;;7.30;100.00
69058;BME280;56128;37.534;-122.308;2024-03-07T06:56:22;101182.00;;;7.27;100.00
69058;BME280;56128;37.534;-122.308;2024-03-07T06:58:49;101177.63;;;7.26;100.00
69058;BME280;56128;37.534;-122.308;2024-03-07T07:01:16;101184.81;;;7.24;100.00
69058;BME280;56128;37.534;-122.308;2024-03-07T07:03:44;101189.47;;;7.20;100.00
69058;BME280;56128;37.534;-122.308;2024-03-07T07:06:10;101194.19;;;7.15;100.00
69058;BME280;56128;37.534;-122.308;2024-03-07T07:08:37;101187.41;;;7.09;100.00
69058;BME280;56128;37.534;-122.308;2024-03-07T07:11:03;101192.13;;;7.04;100.00
69058;BME280;56128;37.534;-122.308;2024-03-07T07:13:30;101182.66;;;6.98;100.00
69058;BME280;56128;37.534;-122.308;2024-03-07T07:15:57;101186.44;;;6.94;100.00
69058;BME280;56128;37.534;-122.308;2024-03-07T07:18:23;101186.69;;;6.90;100.00
69058;BME280;56128;37.534;-122.308;2024-03-07T07:20:50;101185.13;;;6.86;100.00
69058;BME280;56128;37.534;-122.308;2024-03-07T07:23:19;101186.06;;;6.85;100.00
69058;BME280;56128;37.534;-122.308;2024-03-07T07:25:46;101184.63;;;6.79;100.00
69058;BME280;56128;37.534;-122.308;2024-03-07T07:28:12;101186.50;;;6.77;100.00
69058;BME280;56128;37.534;-122.308;2024-03-07T07:30:39;101185.69;;;6.75;100.00
69058;BME280;56128;37.534;-122.308;2024-03-07T07:33:05;101182.28;;;6.73;100.00
69058;BME280;56128;37.534;-122.308;2024-03-07T07:35:31;101188.69;;;6.69;100.00
69058;BME280;56128;37.534;-122.308;2024-03-07T07:38:00;101181.81;;;6.64;100.00
69058;BME280;56128;37.534;-122.308;2024-03-07T07:40:26;101181.03;;;6.62;100.00
69058;BME280;56128;37.534;-122.308;2024-03-07T07:42:54;101183.09;;;6.57;100.00
69058;BME280;56128;37.534;-122.308;2024-03-07T07:45:21;101182.22;;;6.57;100.00
69058;BME280;56128;37.534;-122.308;2024-03-07T07:47:49;101177.94;;;6.54;100.00
69058;BME280;56128;37.534;-122.308;2024-03-07T07:50:18;101181.53;;;6.53;100.00
69058;BME280;56128;37.534;-122.308;2024-03-07T07:52:55;101181.53;;;6.53;100.00
69058;BME280;56128;37.534;-122.308;2024-03-07T07:55:23;101192.16;;;6.53;100.00
69058;BME280;56128;37.534;-122.308;2024-03-07T07:57:53;101187.69;;;6.54;100.00
69058;BME280;56128;37.534;-122.308;2024-03-07T08:00:24;101185.03;;;6.54;100.00
69058;BME280;56128;37.534;-122.308;2024-03-07T08:02:58;101182.31;;;6.55;100.00
69058;BME280;56128;37.534;-122.308;2024-03-07T08:05:27;101191.66;;;6.62;100.00
69058;BME280;56128;37.534;-122.308;2024-03-07T08:07:56;101191.63;;;6.64;100.00
69058;BME280;56128;37.534;-122.308;2024-03-07T08:10:27;101191.28;;;6.70;100.00
69058;BME280;56128;37.534;-122.308;2024-03-07T08:12:57;101192.84;;;6.74;100.00
69058;BME280;56128;37.534;-122.308;2024-03-07T08:15:26;101196.00;;;6.81;100.00
69058;BME280;56128;37.534;-122.308;2024-03-07T08:17:54;101197.66;;;6.83;100.00
69058;BME280;56128;37.534;-122.308;2024-03-07T08:20:24;101192.19;;;6.87;100.00
69058;BME280;56128;37.534;-122.308;2024-03-07T08:22:52;101193.97;;;6.86;100.00
69058;BME280;56128;37.534;-122.308;2024-03-07T08:25:24;101191.41;;;6.85;100.00
69058;BME280;56128;37.534;-122.308;2024-03-07T08:27:52;101194.84;;;6.87;100.00
69058;BME280;56128;37.534;-122.308;2024-03-07T08:30:18;101193.81;;;6.89;100.00
69058;BME280;56128;37.534;-122.308;2024-03-07T08:32:46;101190.81;;;6.95;100.00
69058;BME280;56128;37.534;-122.308;2024-03-07T08:35:13;101186.72;;;7.06;100.00
69058;BME280;56128;37.534;-122.308;2024-03-07T08:37:40;101193.09;;;7.19;100.00
69058;BME280;56128;37.534;-122.308;2024-03-07T08:40:08;101190.69;;;7.30;100.00
69058;BME280;56128;37.534;-122.308;2024-03-07T08:42:38;101190.16;;;7.56;100.00
69058;BME280;56128;37.534;-122.308;2024-03-07T08:45:05;101188.94;;;7.61;100.00
69058;BME280;56128;37.534;-122.308;2024-03-07T08:47:32;101186.81;;;7.68;100.00
69058;BME280;56128;37.534;-122.308;2024-03-07T08:49:59;101187.31;;;7.75;100.00
69058;BME280;56128;37.534;-122.308;2024-03-07T08:52:26;101183.34;;;7.82;100.00
69058;BME280;56128;37.534;-122.308;2024-03-07T08:54:54;101184.88;;;7.86;100.00
69058;BME280;56128;37.534;-122.308;2024-03-07T08:57:21;101188.91;;;7.93;100.00
69058;BME280;56128;37.534;-122.308;2024-03-07T08:59:47;101187.88;;;7.96;100.00
69058;BME280;56128;37.534;-122.308;2024-03-07T09:02:14;101191.22;;;8.00;100.00
69058;BME280;56128;37.534;-122.308;2024-03-07T09:04:41;101189.13;;;8.05;100.00
69058;BME280;56128;37.534;-122.308;2024-03-07T09:07:07;101188.09;;;8.07;100.00
69058;BME280;56128;37.534;-122.308;2024-03-07T09:09:34;101190.41;;;8.13;100.00
69058;BME280;56128;37.534;-122.308;2024-03-07T09:12:01;101189.16;;;8.19;100.00
69058;BME280;56128;37.534;-122.308;2024-03-07T09:14:28;101182.88;;;8.20;100.00
69058;BME280;56128;37.534;-122.308;2024-03-07T09:16:55;101186.31;;;8.22;100.00
69058;BME280;56128;37.534;-122.308;2024-03-07T09:19:22;101179.00;;;8.26;100.00
69058;BME280;56128;37.534;-122.308;2024-03-07T09:21:53;101175.19;;;8.30;100.00
69058;BME280;56128;37.534;-122.308;2024-03-07T09:24:20;101176.81;;;8.33;100.00
69058;BME280;56128;37.534;-122.308;2024-03-07T09:26:52;101172.84;;;8.40;100.00
69058;BME280;56128;37.534;-122.308;2024-03-07T09:29:22;101180.56;;;8.44;100.00
69058;BME280;56128;37.534;-122.308;2024-03-07T09:31:52;101173.25;;;8.48;100.00
69058;BME280;56128;37.534;-122.308;2024-03-07T09:34:19;101171.09;;;8.55;100.00
69058;BME280;56128;37.534;-122.308;2024-03-07T09:36:49;101168.31;;;8.56;100.00
69058;BME280;56128;37.534;-122.308;2024-03-07T09:39:16;101178.03;;;8.57;100.00
69058;BME280;56128;37.534;-122.308;2024-03-07T09:41:43;101173.44;;;8.59;100.00
69058;BME280;56128;37.534;-122.308;2024-03-07T09:44:09;101170.78;;;8.59;100.00
69058;BME280;56128;37.534;-122.308;2024-03-07T09:46:38;101165.28;;;8.63;100.00
69058;BME280;56128;37.534;-122.308;2024-03-07T09:49:05;101179.19;;;8.68;100.00
69058;BME280;56128;37.534;-122.308;2024-03-07T09:51:35;101183.38;;;8.72;100.00
69058;BME280;56128;37.534;-122.308;2024-03-07T09:54:02;101172.41;;;8.76;100.00
69058;BME280;56128;37.534;-122.308;2024-03-07T09:56:28;101174.69;;;8.83;100.00
69058;BME280;56128;37.534;-122.308;2024-03-07T09:58:58;101171.00;;;8.85;100.00
69058;BME280;56128;37.534;-122.308;2024-03-07T10:01:27;101168.31;;;8.85;100.00
69058;BME280;56128;37.534;-122.308;2024-03-07T10:03:58;101167.53;;;8.83;100.00
69058;BME280;56128;37.534;-122.308;2024-03-07T10:06:31;101176.44;;;8.84;100.00
69058;BME280;56128;37.534;-122.308;2024-03-07T10:08:58;101169.16;;;8.86;100.00
69058;BME280;56128;37.534;-122.308;2024-03-07T10:11:25;101168.09;;;8.88;100.00
69058;BME280;56128;37.534;-122.308;2024-03-07T10:13:52;101173.28;;;8.91;100.00
69058;BME280;56128;37.534;-122.308;2024-03-07T10:16:19;101173.84;;;8.97;100.00
69058;BME280;56128;37.534;-122.308;2024-03-07T10:18:45;101166.50;;;9.00;100.00
69058;BME280;56128;37.534;-122.308;2024-03-07T10:21:14;101170.56;;;9.06;100.00
69058;BME280;56128;37.534;-122.308;2024-03-07T10:23:43;101166.66;;;9.12;100.00
69058;BME280;56128;37.534;-122.308;2024-03-07T10:26:10;101159.13;;;9.18;100.00
69058;BME280;56128;37.534;-122.308;2024-03-07T10:28:37;101157.78;;;9.25;100.00
69058;BME280;56128;37.534;-122.308;2024-03-07T10:31:04;101153.09;;;9.29;100.00
69058;BME280;56128;37.534;-122.308;2024-03-07T10:33:40;101156.53;;;9.31;100.00
69058;BME280;56128;37.534;-122.308;2024-03-07T10:36:09;101157.38;;;9.32;100.00
69058;BME280;56128;37.534;-122.308;2024-03-07T10:38:39;101154.50;;;9.35;100.00
69058;BME280;56128;37.534;-122.308;2024-03-07T10:41:06;101157.94;;;9.37;100.00
69058;BME280;56128;37.534;-122.308;2024-03-07T10:43:36;101157.75;;;9.40;100.00
69058;BME280;56128;37.534;-122.308;2024-03-07T10:46:05;101154.09;;;9.41;100.00
69058;BME280;56128;37.534;-122.308;2024-03-07T10:48:38;101150.06;;;9.48;100.00
69058;BME280;56128;37.534;-122.308;2024-03-07T10:54:33;101154.19;;;9.54;100.00
69058;BME280;56128;37.534;-122.308;2024-03-07T10:59:31;101141.47;;;9.57;100.00
69058;BME280;56128;37.534;-122.308;2024-03-07T11:04:56;101143.94;;;9.61;100.00
69058;BME280;56128;37.534;-122.308;2024-03-07T11:07:23;101148.88;;;9.67;100.00
69058;BME280;56128;37.534;-122.308;2024-03-07T11:09:51;101149.63;;;9.69;100.00
69058;BME280;56128;37.534;-122.308;2024-03-07T11:12:20;101152.09;;;9.72;100.00
69058;BME280;56128;37.534;-122.308;2024-03-07T11:14:49;101145.69;;;9.74;100.00
69058;BME280;56128;37.534;-122.308;2024-03-07T11:17:18;101152.75;;;9.75;100.00
69058;BME280;56128;37.534;-122.308;2024-03-07T11:19:46;101150.38;;;9.71;100.00
69058;BME280;56128;37.534;-122.308;2024-03-07T11:22:28;101150.88;;;9.63;100.00
69058;BME280;56128;37.534;-122.308;2024-03-07T11:25:02;101150.78;;;9.65;100.00
69058;BME280;56128;37.534;-122.308;2024-03-07T11:27:39;101144.69;;;9.63;100.00
69058;BME280;56128;37.534;-122.308;2024-03-07T11:30:10;101152.59;;;9.64;100.00
69058;BME280;56128;37.534;-122.308;2024-03-07T11:32:40;101142.03;;;9.63;100.00
69058;BME280;56128;37.534;-122.308;2024-03-07T11:35:13;101146.59;;;9.61;100.00
69058;BME280;56128;37.534;-122.308;2024-03-07T11:37:41;101151.66;;;9.65;100.00
69058;BME280;56128;37.534;-122.308;2024-03-07T11:43:01;101155.28;;;9.64;100.00
69058;BME280;56128;37.534;-122.308;2024-03-07T11:45:31;101156.34;;;9.62;100.00
69058;BME280;56128;37.534;-122.308;2024-03-07T11:48:04;101154.06;;;9.55;100.00
69058;BME280;56128;37.534;-122.308;2024-03-07T11:50:40;101159.59;;;9.52;100.00
69058;BME280;56128;37.534;-122.308;2024-03-07T11:53:07;101153.69;;;9.47;100.00
69058;BME280;56128;37.534;-122.308;2024-03-07T11:55:38;101156.03;;;9.39;100.00
69058;BME280;56128;37.534;-122.308;2024-03-07T11:58:19;101166.16;;;9.34;100.00
69058;BME280;56128;37.534;-122.308;2024-03-07T12:00:50;101158.34;;;9.31;100.00
69058;BME280;56128;37.534;-122.308;2024-03-07T12:03:21;101163.50;;;9.34;100.00
69058;BME280;56128;37.534;-122.308;2024-03-07T12:05:48;101168.63;;;9.37;100.00
69058;BME280;56128;37.534;-122.308;2024-03-07T12:08:14;101169.16;;;9.42;100.00
69058;BME280;56128;37.534;-122.308;2024-03-07T12:10:42;101165.38;;;9.46;100.00
69058;BME280;56128;37.534;-122.308;2024-03-07T12:13:12;101172.22;;;9.50;100.00
69058;BME280;56128;37.534;-122.308;2024-03-07T12:15:42;101174.66;;;9.53;100.00
69058;BME280;56128;37.534;-122.308;2024-03-07T12:18:09;101175.22;;;9.58;100.00
69058;BME280;56128;37.534;-122.308;2024-03-07T12:20:40;101175.78;;;9.64;100.00
69058;BME280;56128;37.534;-122.308;2024-03-07T12:23:08;101182.94;;;9.63;100.00
69058;BME280;56128;37.534;-122.308;2024-03-07T12:25:38;101177.50;;;9.65;100.00
69058;BME280;56128;37.534;-122.308;2024-03-07T12:28:06;101175.59;;;9.67;100.00
69058;BME280;56128;37.534;-122.308;2024-03-07T12:30:56;101177.31;;;9.68;100.00
69058;BME280;56128;37.534;-122.308;2024-03-07T12:33:23;101180.81;;;9.68;100.00
69058;BME280;56128;37.534;-122.308;2024-03-07T12:35:54;101179.09;;;9.67;100.00
69058;BME280;56128;37.534;-122.308;2024-03-07T12:38:32;101177.59;;;9.63;100.00